MON6841 LOWI-EGKK
Flight info
| Callsign | MON6841 |
|---|---|
| Flight time | 1h 36m |
| Altitude | 32000 |
| Route | LOWI/26 KPT L856 RAVED Y112 HOC/N0371F180 DCT LUL/N0444F340 DCT RLP DCT ROTSI DCT KOTUN DCT NINAL DCT KESAX DCT KUNAV |
| Aircraft | A320/M-SDE3FGHIRWY/LB1 |
Departure
| Time | 2026-05-04 20:05 |
|---|---|
| Airport | Innsbruck Airport (LOWI) |
Arrival
| Time | 2026-05-04 21:41 |
|---|---|
| Airport | London Gatwick Airport (EGKK) |
| Time | Latitude | Longitude | Altitude | Speed | Heading |
|---|---|---|---|---|---|
| 2026-05-04 19:30 | 47.25819 | 11.35052 | 1914 ft | 0 kts | 171° |
| 2026-05-04 19:52 | 47.25841 | 11.35048 | 1914 ft | 4 kts | 178° |
| 2026-05-04 19:52 | 47.25867 | 11.35051 | 1914 ft | 4 kts | 208° |
| 2026-05-04 19:52 | 47.25879 | 11.35070 | 1914 ft | 0 kts | 261° |
| 2026-05-04 19:56 | 47.25876 | 11.35043 | 1914 ft | 4 kts | 261° |
| 2026-05-04 19:56 | 47.25870 | 11.34981 | 1914 ft | 8 kts | 261° |
| 2026-05-04 19:56 | 47.25859 | 11.34883 | 1914 ft | 12 kts | 261° |
| 2026-05-04 19:56 | 47.25844 | 11.34747 | 1914 ft | 15 kts | 261° |
| 2026-05-04 19:57 | 47.25827 | 11.34577 | 1914 ft | 17 kts | 262° |
| 2026-05-04 19:57 | 47.25809 | 11.34400 | 1914 ft | 17 kts | 260° |
| 2026-05-04 19:57 | 47.25795 | 11.34283 | 1914 ft | 18 kts | 261° |
| 2026-05-04 19:57 | 47.25771 | 11.34043 | 1914 ft | 18 kts | 266° |
| 2026-05-04 19:58 | 47.25777 | 11.33968 | 1914 ft | 0 kts | 287° |
| 2026-05-04 19:59 | 47.25777 | 11.33967 | 1914 ft | 1 kts | 287° |
| 2026-05-04 19:59 | 47.25780 | 11.33955 | 1914 ft | 4 kts | 289° |
| 2026-05-04 19:59 | 47.25802 | 11.33896 | 1914 ft | 9 kts | 306° |
| 2026-05-04 19:59 | 47.25838 | 11.33823 | 1914 ft | 9 kts | 306° |
| 2026-05-04 20:00 | 47.25844 | 11.33811 | 1914 ft | 0 kts | 305° |
| 2026-05-04 20:02 | 47.25847 | 11.33805 | 1914 ft | 2 kts | 305° |
| 2026-05-04 20:02 | 47.25865 | 11.33765 | 1914 ft | 8 kts | 305° |
| 2026-05-04 20:02 | 47.25912 | 11.33675 | 1914 ft | 14 kts | 308° |
| 2026-05-04 20:03 | 47.25926 | 11.33516 | 1914 ft | 19 kts | 260° |
| 2026-05-04 20:03 | 47.25907 | 11.33329 | 1914 ft | 18 kts | 262° |
| 2026-05-04 20:03 | 47.25853 | 11.33178 | 1914 ft | 17 kts | 216° |
| 2026-05-04 20:03 | 47.25865 | 11.33119 | 1914 ft | 7 kts | 13° |
| 2026-05-04 20:04 | 47.25886 | 11.33163 | 1914 ft | 5 kts | 70° |
| 2026-05-04 20:04 | 47.25910 | 11.33364 | 1914 ft | 51 kts | 81° |
| 2026-05-04 20:04 | 47.26006 | 11.34269 | 1915 ft | 125 kts | 81° |
| 2026-05-04 20:04 | 47.26170 | 11.35759 | 2151 ft | 154 kts | 82° |
| 2026-05-04 20:05 | 47.26342 | 11.37337 | 2816 ft | 159 kts | 82° |
| 2026-05-04 20:05 | 47.26517 | 11.38981 | 3501 ft | 167 kts | 82° |
| 2026-05-04 20:05 | 47.26696 | 11.40712 | 4095 ft | 176 kts | 81° |
| 2026-05-04 20:05 | 47.26902 | 11.42584 | 4329 ft | 194 kts | 80° |
| 2026-05-04 20:06 | 47.27161 | 11.44601 | 4656 ft | 208 kts | 79° |
| 2026-05-04 20:06 | 47.27498 | 11.46734 | 5018 ft | 221 kts | 71° |
| 2026-05-04 20:06 | 47.28182 | 11.48839 | 5391 ft | 236 kts | 62° |
| 2026-05-04 20:06 | 47.28910 | 11.51108 | 5779 ft | 254 kts | 69° |
| 2026-05-04 20:07 | 47.29501 | 11.53641 | 6263 ft | 269 kts | 72° |
| 2026-05-04 20:07 | 47.30101 | 11.56290 | 6938 ft | 275 kts | 71° |
| 2026-05-04 20:07 | 47.30662 | 11.58996 | 7670 ft | 278 kts | 82° |
| 2026-05-04 20:07 | 47.30562 | 11.61824 | 8378 ft | 279 kts | 108° |
| 2026-05-04 20:08 | 47.29605 | 11.64308 | 9051 ft | 283 kts | 133° |
| 2026-05-04 20:08 | 47.27998 | 11.65962 | 9728 ft | 286 kts | 158° |
| 2026-05-04 20:08 | 47.26047 | 11.66500 | 10409 ft | 289 kts | 182° |
| 2026-05-04 20:08 | 47.24071 | 11.65803 | 10825 ft | 302 kts | 206° |
| 2026-05-04 20:09 | 47.22407 | 11.63800 | 11090 ft | 321 kts | 231° |
| 2026-05-04 20:09 | 47.21451 | 11.60764 | 11442 ft | 338 kts | 256° |
| 2026-05-04 20:09 | 47.21421 | 11.57238 | 11813 ft | 355 kts | 276° |
| 2026-05-04 20:09 | 47.21849 | 11.53642 | 12428 ft | 358 kts | 275° |
| 2026-05-04 20:10 | 47.22168 | 11.50004 | 13065 ft | 360 kts | 274° |
| 2026-05-04 20:10 | 47.22446 | 11.46335 | 13659 ft | 363 kts | 274° |
| 2026-05-04 20:10 | 47.22745 | 11.42630 | 14280 ft | 365 kts | 275° |
| 2026-05-04 20:10 | 47.23231 | 11.38960 | 14874 ft | 369 kts | 284° |
| 2026-05-04 20:11 | 47.24031 | 11.35347 | 15446 ft | 373 kts | 287° |
| 2026-05-04 20:11 | 47.24917 | 11.31750 | 15975 ft | 376 kts | 288° |
| 2026-05-04 20:11 | 47.25824 | 11.28133 | 16516 ft | 378 kts | 288° |
| 2026-05-04 20:11 | 47.26711 | 11.24487 | 17038 ft | 380 kts | 287° |
| 2026-05-04 20:12 | 47.27575 | 11.20799 | 17549 ft | 382 kts | 287° |
| 2026-05-04 20:12 | 47.28424 | 11.17092 | 18041 ft | 384 kts | 286° |
| 2026-05-04 20:12 | 47.29281 | 11.13353 | 18515 ft | 386 kts | 287° |
| 2026-05-04 20:12 | 47.30150 | 11.09599 | 18970 ft | 389 kts | 287° |
| 2026-05-04 20:13 | 47.31030 | 11.05824 | 19409 ft | 391 kts | 287° |
| 2026-05-04 20:13 | 47.31918 | 11.02017 | 19832 ft | 394 kts | 287° |
| 2026-05-04 20:13 | 47.32796 | 10.98234 | 20251 ft | 396 kts | 287° |
| 2026-05-04 20:13 | 47.33686 | 10.94379 | 20669 ft | 398 kts | 287° |
| 2026-05-04 20:14 | 47.34577 | 10.90508 | 21099 ft | 400 kts | 287° |
| 2026-05-04 20:14 | 47.35474 | 10.86608 | 21455 ft | 403 kts | 287° |
| 2026-05-04 20:14 | 47.36389 | 10.82621 | 21819 ft | 406 kts | 286° |
| 2026-05-04 20:14 | 47.37296 | 10.78665 | 22185 ft | 409 kts | 286° |
| 2026-05-04 20:15 | 47.38315 | 10.74796 | 22529 ft | 413 kts | 294° |
| 2026-05-04 20:15 | 47.39859 | 10.71202 | 22868 ft | 419 kts | 307° |
| 2026-05-04 20:15 | 47.41997 | 10.68234 | 23201 ft | 425 kts | 321° |
| 2026-05-04 20:15 | 47.44438 | 10.65745 | 23542 ft | 429 kts | 324° |
| 2026-05-04 20:16 | 47.46954 | 10.63341 | 23854 ft | 431 kts | 325° |
| 2026-05-04 20:16 | 47.49473 | 10.60920 | 24170 ft | 433 kts | 324° |
| 2026-05-04 20:16 | 47.51973 | 10.58412 | 24483 ft | 435 kts | 323° |
| 2026-05-04 20:16 | 47.54454 | 10.55828 | 24790 ft | 437 kts | 322° |
| 2026-05-04 20:17 | 47.56936 | 10.53209 | 25096 ft | 439 kts | 322° |
| 2026-05-04 20:17 | 47.59438 | 10.50593 | 25388 ft | 441 kts | 322° |
| 2026-05-04 20:17 | 47.61959 | 10.47995 | 25679 ft | 443 kts | 323° |
| 2026-05-04 20:17 | 47.64502 | 10.45395 | 25961 ft | 445 kts | 323° |
| 2026-05-04 20:18 | 47.67057 | 10.42778 | 26241 ft | 447 kts | 322° |
| 2026-05-04 20:18 | 47.69525 | 10.39991 | 26498 ft | 446 kts | 315° |
| 2026-05-04 20:18 | 47.71628 | 10.36622 | 26756 ft | 444 kts | 304° |
| 2026-05-04 20:18 | 47.73193 | 10.32695 | 27010 ft | 441 kts | 291° |
| 2026-05-04 20:19 | 47.74128 | 10.28388 | 27259 ft | 438 kts | 279° |
| 2026-05-04 20:19 | 47.74429 | 10.23912 | 27499 ft | 436 kts | 268° |
| 2026-05-04 20:19 | 47.74325 | 10.19410 | 27742 ft | 436 kts | 265° |
| 2026-05-04 20:19 | 47.74153 | 10.14907 | 27970 ft | 438 kts | 264° |
| 2026-05-04 20:20 | 47.73990 | 10.10379 | 28207 ft | 439 kts | 265° |
| 2026-05-04 20:20 | 47.73866 | 10.05841 | 28489 ft | 439 kts | 266° |
| 2026-05-04 20:20 | 47.73776 | 10.01316 | 28814 ft | 439 kts | 266° |
| 2026-05-04 20:20 | 47.73691 | 9.96790 | 29128 ft | 438 kts | 266° |
| 2026-05-04 20:21 | 47.73592 | 9.92279 | 29463 ft | 436 kts | 265° |
| 2026-05-04 20:21 | 47.73475 | 9.87781 | 29775 ft | 435 kts | 265° |
| 2026-05-04 20:21 | 47.73226 | 9.78825 | 30358 ft | 434 kts | 265° |
| 2026-05-04 20:22 | 47.73106 | 9.74348 | 30614 ft | 434 kts | 265° |
| 2026-05-04 20:22 | 47.72988 | 9.69869 | 30883 ft | 434 kts | 265° |
| 2026-05-04 20:22 | 47.72913 | 9.65386 | 31148 ft | 434 kts | 267° |
| 2026-05-04 20:22 | 47.72911 | 9.60916 | 31417 ft | 433 kts | 268° |
| 2026-05-04 20:23 | 47.72923 | 9.56440 | 31658 ft | 434 kts | 268° |
| 2026-05-04 20:23 | 47.72939 | 9.51959 | 31908 ft | 433 kts | 268° |
| 2026-05-04 20:23 | 47.72952 | 9.43016 | 31975 ft | 433 kts | 268° |
| 2026-05-04 20:24 | 47.72947 | 9.34079 | 31972 ft | 432 kts | 267° |
| 2026-05-04 20:24 | 47.72941 | 9.25176 | 31976 ft | 431 kts | 267° |
| 2026-05-04 20:25 | 47.72928 | 9.16283 | 31980 ft | 430 kts | 267° |
| 2026-05-04 20:25 | 47.72910 | 9.07417 | 31954 ft | 429 kts | 267° |
| 2026-05-04 20:26 | 47.72882 | 8.98556 | 31941 ft | 429 kts | 266° |
| 2026-05-04 20:26 | 47.72849 | 8.89705 | 31953 ft | 428 kts | 266° |
| 2026-05-04 20:27 | 47.72809 | 8.80864 | 31959 ft | 428 kts | 266° |
| 2026-05-04 20:27 | 47.72761 | 8.72080 | 31996 ft | 428 kts | 266° |
| 2026-05-04 20:28 | 47.72709 | 8.63244 | 32036 ft | 427 kts | 266° |
| 2026-05-04 20:28 | 47.72647 | 8.54443 | 32054 ft | 427 kts | 266° |
| 2026-05-04 20:29 | 47.72579 | 8.45634 | 32044 ft | 426 kts | 266° |
| 2026-05-04 20:29 | 47.72506 | 8.36833 | 32054 ft | 426 kts | 265° |
| 2026-05-04 20:30 | 47.72426 | 8.28044 | 32031 ft | 426 kts | 265° |
| 2026-05-04 20:30 | 47.72340 | 8.19239 | 31992 ft | 426 kts | 265° |
| 2026-05-04 20:31 | 47.72245 | 8.10430 | 31968 ft | 427 kts | 265° |
| 2026-05-04 20:31 | 47.72142 | 8.01616 | 31961 ft | 427 kts | 265° |
| 2026-05-04 20:32 | 47.72037 | 7.92800 | 31980 ft | 426 kts | 265° |
| 2026-05-04 20:32 | 47.71922 | 7.83997 | 32020 ft | 426 kts | 265° |
| 2026-05-04 20:33 | 47.71802 | 7.75224 | 32040 ft | 425 kts | 265° |
| 2026-05-04 20:33 | 47.71674 | 7.66455 | 32043 ft | 425 kts | 265° |
| 2026-05-04 20:34 | 47.71541 | 7.57691 | 32035 ft | 424 kts | 265° |
| 2026-05-04 20:34 | 47.71402 | 7.48981 | 32017 ft | 424 kts | 265° |
| 2026-05-04 20:35 | 47.71255 | 7.40227 | 31997 ft | 424 kts | 264° |
| 2026-05-04 20:35 | 47.71101 | 7.31476 | 32020 ft | 423 kts | 264° |
| 2026-05-04 20:36 | 47.70941 | 7.22739 | 31983 ft | 424 kts | 264° |
| 2026-05-04 20:36 | 47.70776 | 7.13994 | 31994 ft | 423 kts | 264° |
| 2026-05-04 20:37 | 47.70602 | 7.05258 | 31979 ft | 423 kts | 264° |
| 2026-05-04 20:37 | 47.70423 | 6.96532 | 31989 ft | 423 kts | 264° |
| 2026-05-04 20:38 | 47.70237 | 6.87814 | 31981 ft | 423 kts | 264° |
| 2026-05-04 20:38 | 47.70044 | 6.79105 | 32004 ft | 422 kts | 263° |
| 2026-05-04 20:39 | 47.69845 | 6.70407 | 31975 ft | 422 kts | 263° |
| 2026-05-04 20:39 | 47.69638 | 6.61679 | 31953 ft | 423 kts | 263° |
| 2026-05-04 20:40 | 47.69427 | 6.52967 | 31947 ft | 423 kts | 263° |
| 2026-05-04 20:40 | 47.69208 | 6.44243 | 31966 ft | 423 kts | 263° |
| 2026-05-04 20:41 | 47.68982 | 6.35526 | 31985 ft | 423 kts | 263° |
| 2026-05-04 20:41 | 47.69360 | 6.26773 | 31966 ft | 434 kts | 278° |
| 2026-05-04 20:42 | 47.71165 | 6.18163 | 31977 ft | 438 kts | 283° |
| 2026-05-04 20:42 | 47.73117 | 6.09596 | 31972 ft | 438 kts | 282° |
| 2026-05-04 20:43 | 47.74901 | 6.01014 | 32001 ft | 437 kts | 281° |
| 2026-05-04 20:43 | 47.76693 | 5.92322 | 32021 ft | 437 kts | 281° |
| 2026-05-04 20:44 | 47.78507 | 5.83757 | 32030 ft | 437 kts | 282° |
| 2026-05-04 20:44 | 47.80313 | 5.75125 | 32028 ft | 437 kts | 281° |
| 2026-05-04 20:45 | 47.82101 | 5.66480 | 32027 ft | 437 kts | 281° |
| 2026-05-04 20:45 | 47.83889 | 5.57837 | 32026 ft | 437 kts | 281° |
| 2026-05-04 20:46 | 47.85370 | 5.50655 | 32027 ft | 436 kts | 281° |
| 2026-05-04 20:46 | 47.87141 | 5.42020 | 32007 ft | 436 kts | 281° |
| 2026-05-04 20:47 | 47.88907 | 5.33373 | 31972 ft | 436 kts | 281° |
| 2026-05-04 20:47 | 47.91008 | 5.24858 | 31926 ft | 446 kts | 293° |
| 2026-05-04 20:48 | 47.92807 | 5.21035 | 31920 ft | 455 kts | 304° |
| 2026-05-04 20:48 | 47.94923 | 5.17518 | 31912 ft | 457 kts | 308° |
| 2026-05-04 20:48 | 47.99327 | 5.10654 | 31918 ft | 458 kts | 308° |
| 2026-05-04 20:49 | 48.03601 | 5.03642 | 31953 ft | 456 kts | 306° |
| 2026-05-04 20:49 | 48.07804 | 4.96529 | 31935 ft | 457 kts | 306° |
| 2026-05-04 20:50 | 48.12066 | 4.89474 | 31977 ft | 457 kts | 307° |
| 2026-05-04 20:50 | 48.16325 | 4.82425 | 31991 ft | 456 kts | 306° |
| 2026-05-04 20:51 | 48.20559 | 4.75330 | 31961 ft | 457 kts | 306° |
| 2026-05-04 20:51 | 48.24796 | 4.68228 | 31955 ft | 457 kts | 306° |
| 2026-05-04 20:52 | 48.29030 | 4.61128 | 31950 ft | 457 kts | 306° |
| 2026-05-04 20:52 | 48.33258 | 4.54009 | 31950 ft | 456 kts | 306° |
| 2026-05-04 20:53 | 48.37482 | 4.46876 | 31949 ft | 456 kts | 306° |
| 2026-05-04 20:53 | 48.41669 | 4.39792 | 31951 ft | 456 kts | 306° |
| 2026-05-04 20:54 | 48.45884 | 4.32639 | 31953 ft | 456 kts | 306° |
| 2026-05-04 20:54 | 48.50095 | 4.25473 | 31959 ft | 456 kts | 306° |
| 2026-05-04 20:55 | 48.54296 | 4.18306 | 31967 ft | 456 kts | 306° |
| 2026-05-04 20:55 | 48.58494 | 4.11122 | 31975 ft | 456 kts | 306° |
| 2026-05-04 20:56 | 48.62689 | 4.03924 | 31983 ft | 456 kts | 306° |
| 2026-05-04 20:56 | 48.66880 | 3.96716 | 31989 ft | 456 kts | 306° |
| 2026-05-04 20:57 | 48.71061 | 3.89502 | 32001 ft | 456 kts | 306° |
| 2026-05-04 20:57 | 48.75467 | 3.82556 | 31976 ft | 458 kts | 310° |
| 2026-05-04 20:58 | 48.80043 | 3.75812 | 31934 ft | 459 kts | 311° |
| 2026-05-04 20:58 | 48.84605 | 3.69048 | 31914 ft | 458 kts | 310° |
| 2026-05-04 20:59 | 48.89140 | 3.62235 | 31908 ft | 458 kts | 310° |
| 2026-05-04 20:59 | 48.93679 | 3.55433 | 31915 ft | 458 kts | 310° |
| 2026-05-04 21:00 | 48.98215 | 3.48627 | 31917 ft | 458 kts | 310° |
| 2026-05-04 21:00 | 49.02710 | 3.41846 | 31930 ft | 458 kts | 310° |
| 2026-05-04 21:01 | 49.07234 | 3.35012 | 31955 ft | 457 kts | 310° |
| 2026-05-04 21:01 | 49.11746 | 3.28176 | 31963 ft | 457 kts | 310° |
| 2026-05-04 21:02 | 49.16255 | 3.21325 | 31991 ft | 457 kts | 310° |
| 2026-05-04 21:02 | 49.20755 | 3.14470 | 31992 ft | 457 kts | 310° |
| 2026-05-04 21:03 | 49.25257 | 3.07593 | 32005 ft | 456 kts | 310° |
| 2026-05-04 21:03 | 49.29718 | 3.00762 | 32004 ft | 456 kts | 310° |
| 2026-05-04 21:04 | 49.34203 | 2.93868 | 32005 ft | 456 kts | 310° |
| 2026-05-04 21:04 | 49.38684 | 2.86970 | 32013 ft | 455 kts | 310° |
| 2026-05-04 21:05 | 49.43146 | 2.80077 | 31998 ft | 455 kts | 310° |
| 2026-05-04 21:05 | 49.47602 | 2.73177 | 31978 ft | 454 kts | 311° |
| 2026-05-04 21:06 | 49.52046 | 2.66275 | 31958 ft | 454 kts | 311° |
| 2026-05-04 21:06 | 49.56482 | 2.59369 | 31934 ft | 453 kts | 311° |
| 2026-05-04 21:07 | 49.60854 | 2.52450 | 31921 ft | 451 kts | 308° |
| 2026-05-04 21:07 | 49.64930 | 2.45128 | 31921 ft | 449 kts | 306° |
| 2026-05-04 21:08 | 49.68932 | 2.37785 | 31922 ft | 446 kts | 307° |
| 2026-05-04 21:08 | 49.72926 | 2.30512 | 31923 ft | 441 kts | 307° |
| 2026-05-04 21:09 | 49.76931 | 2.23205 | 31957 ft | 449 kts | 307° |
| 2026-05-04 21:09 | 49.80962 | 2.15808 | 31969 ft | 450 kts | 307° |
| 2026-05-04 21:10 | 49.84994 | 2.08398 | 31976 ft | 449 kts | 307° |
| 2026-05-04 21:10 | 49.89017 | 2.00983 | 31980 ft | 449 kts | 307° |
| 2026-05-04 21:11 | 49.93037 | 1.93550 | 31988 ft | 449 kts | 307° |
| 2026-05-04 21:11 | 49.97028 | 1.86155 | 31710 ft | 441 kts | 307° |
| 2026-05-04 21:12 | 49.98953 | 1.82585 | 31459 ft | 433 kts | 307° |
| 2026-05-04 21:12 | 50.00876 | 1.79006 | 31084 ft | 430 kts | 307° |
| 2026-05-04 21:12 | 50.02784 | 1.75449 | 30597 ft | 427 kts | 307° |
| 2026-05-04 21:12 | 50.04676 | 1.71915 | 30094 ft | 424 kts | 307° |
| 2026-05-04 21:13 | 50.06571 | 1.68400 | 29559 ft | 423 kts | 309° |
| 2026-05-04 21:13 | 50.08673 | 1.65186 | 29027 ft | 423 kts | 315° |
| 2026-05-04 21:13 | 50.10873 | 1.62159 | 28496 ft | 422 kts | 317° |
| 2026-05-04 21:13 | 50.13096 | 1.59201 | 27988 ft | 419 kts | 317° |
| 2026-05-04 21:14 | 50.15309 | 1.56273 | 27481 ft | 416 kts | 317° |
| 2026-05-04 21:14 | 50.17502 | 1.53328 | 26937 ft | 415 kts | 317° |
| 2026-05-04 21:14 | 50.19669 | 1.50370 | 26414 ft | 412 kts | 316° |
| 2026-05-04 21:14 | 50.21813 | 1.47417 | 25896 ft | 410 kts | 316° |
| 2026-05-04 21:15 | 50.23945 | 1.44486 | 25381 ft | 407 kts | 317° |
| 2026-05-04 21:15 | 50.26072 | 1.41579 | 24877 ft | 405 kts | 317° |
| 2026-05-04 21:15 | 50.28184 | 1.38698 | 24356 ft | 403 kts | 317° |
| 2026-05-04 21:15 | 50.30289 | 1.35820 | 23837 ft | 401 kts | 317° |
| 2026-05-04 21:16 | 50.32380 | 1.32951 | 23340 ft | 398 kts | 317° |
| 2026-05-04 21:16 | 50.34457 | 1.30097 | 22858 ft | 396 kts | 317° |
| 2026-05-04 21:16 | 50.36519 | 1.27257 | 22377 ft | 394 kts | 317° |
| 2026-05-04 21:16 | 50.38569 | 1.24434 | 21896 ft | 392 kts | 317° |
| 2026-05-04 21:17 | 50.40609 | 1.21623 | 21441 ft | 389 kts | 317° |
| 2026-05-04 21:17 | 50.42637 | 1.18827 | 20990 ft | 387 kts | 317° |
| 2026-05-04 21:17 | 50.44648 | 1.16048 | 20541 ft | 385 kts | 318° |
| 2026-05-04 21:17 | 50.46651 | 1.13277 | 20101 ft | 383 kts | 318° |
| 2026-05-04 21:18 | 50.48644 | 1.10518 | 19670 ft | 381 kts | 318° |
| 2026-05-04 21:18 | 50.50625 | 1.07771 | 19236 ft | 379 kts | 318° |
| 2026-05-04 21:18 | 50.52515 | 1.04900 | 18805 ft | 377 kts | 314° |
| 2026-05-04 21:18 | 50.54315 | 1.01915 | 18376 ft | 376 kts | 313° |
| 2026-05-04 21:19 | 50.56080 | 0.98902 | 17969 ft | 374 kts | 312° |
| 2026-05-04 21:19 | 50.57827 | 0.95901 | 17573 ft | 371 kts | 313° |
| 2026-05-04 21:19 | 50.59555 | 0.92958 | 17171 ft | 369 kts | 313° |
| 2026-05-04 21:19 | 50.61318 | 0.89982 | 16766 ft | 365 kts | 313° |
| 2026-05-04 21:20 | 50.63040 | 0.87082 | 16355 ft | 361 kts | 313° |
| 2026-05-04 21:20 | 50.64716 | 0.84253 | 16072 ft | 353 kts | 313° |
| 2026-05-04 21:20 | 50.66356 | 0.81471 | 16022 ft | 339 kts | 313° |
| 2026-05-04 21:20 | 50.67889 | 0.78769 | 16012 ft | 324 kts | 310° |
| 2026-05-04 21:21 | 50.69297 | 0.76070 | 15910 ft | 313 kts | 309° |
| 2026-05-04 21:21 | 50.70633 | 0.73435 | 15802 ft | 302 kts | 308° |
| 2026-05-04 21:21 | 50.71918 | 0.70885 | 15701 ft | 292 kts | 308° |
| 2026-05-04 21:21 | 50.73163 | 0.68423 | 15564 ft | 283 kts | 309° |
| 2026-05-04 21:22 | 50.74397 | 0.66002 | 15224 ft | 283 kts | 309° |
| 2026-05-04 21:22 | 50.75635 | 0.63583 | 14892 ft | 283 kts | 309° |
| 2026-05-04 21:22 | 50.76860 | 0.61181 | 14628 ft | 280 kts | 309° |
| 2026-05-04 21:22 | 50.78078 | 0.58783 | 14295 ft | 279 kts | 309° |
| 2026-05-04 21:23 | 50.79285 | 0.56405 | 14020 ft | 276 kts | 309° |
| 2026-05-04 21:23 | 50.80487 | 0.54037 | 13688 ft | 276 kts | 309° |
| 2026-05-04 21:23 | 50.81682 | 0.51682 | 13399 ft | 273 kts | 309° |
| 2026-05-04 21:23 | 50.82868 | 0.49337 | 13074 ft | 272 kts | 308° |
| 2026-05-04 21:24 | 50.84047 | 0.47001 | 12741 ft | 271 kts | 309° |
| 2026-05-04 21:24 | 50.85225 | 0.44680 | 12418 ft | 270 kts | 309° |
| 2026-05-04 21:24 | 50.86396 | 0.42376 | 12131 ft | 267 kts | 309° |
| 2026-05-04 21:24 | 50.87549 | 0.40094 | 11817 ft | 265 kts | 308° |
| 2026-05-04 21:25 | 50.88696 | 0.37813 | 11467 ft | 264 kts | 308° |
| 2026-05-04 21:25 | 50.89842 | 0.35537 | 11128 ft | 263 kts | 308° |
| 2026-05-04 21:25 | 50.90982 | 0.33276 | 10788 ft | 262 kts | 308° |
| 2026-05-04 21:25 | 50.92119 | 0.31018 | 10446 ft | 261 kts | 308° |
| 2026-05-04 21:26 | 50.93247 | 0.28777 | 10124 ft | 259 kts | 308° |
| 2026-05-04 21:26 | 50.94363 | 0.26557 | 9792 ft | 257 kts | 309° |
| 2026-05-04 21:26 | 50.95470 | 0.24335 | 9433 ft | 256 kts | 308° |
| 2026-05-04 21:26 | 50.96545 | 0.22136 | 9082 ft | 255 kts | 308° |
| 2026-05-04 21:27 | 50.97630 | 0.19923 | 8725 ft | 253 kts | 308° |
| 2026-05-04 21:27 | 50.98714 | 0.17726 | 8367 ft | 252 kts | 308° |
| 2026-05-04 21:27 | 50.99787 | 0.15548 | 8008 ft | 250 kts | 308° |
| 2026-05-04 21:27 | 51.00851 | 0.13374 | 7645 ft | 249 kts | 308° |
| 2026-05-04 21:28 | 51.01717 | 0.11017 | 7258 ft | 248 kts | 289° |
| 2026-05-04 21:28 | 51.02002 | 0.08326 | 6881 ft | 247 kts | 274° |
| 2026-05-04 21:28 | 51.02055 | 0.05606 | 6508 ft | 246 kts | 272° |
| 2026-05-04 21:28 | 51.02135 | 0.02897 | 6137 ft | 245 kts | 275° |
| 2026-05-04 21:29 | 51.02295 | 0.00203 | 5771 ft | 244 kts | 277° |
| 2026-05-04 21:29 | 51.02463 | -0.02474 | 5401 ft | 243 kts | 276° |
| 2026-05-04 21:29 | 51.02598 | -0.05149 | 5036 ft | 242 kts | 275° |
| 2026-05-04 21:29 | 51.02720 | -0.07813 | 4674 ft | 241 kts | 275° |
| 2026-05-04 21:30 | 51.02852 | -0.10459 | 4316 ft | 240 kts | 276° |
| 2026-05-04 21:30 | 51.02993 | -0.13094 | 3961 ft | 239 kts | 276° |
| 2026-05-04 21:30 | 51.03130 | -0.15719 | 3608 ft | 238 kts | 276° |
| 2026-05-04 21:30 | 51.03255 | -0.18305 | 3376 ft | 231 kts | 276° |
| 2026-05-04 21:31 | 51.03498 | -0.23177 | 3139 ft | 211 kts | 276° |
| 2026-05-04 21:31 | 51.03623 | -0.25586 | 3032 ft | 225 kts | 276° |
| 2026-05-04 21:31 | 51.03742 | -0.28050 | 2985 ft | 217 kts | 276° |
| 2026-05-04 21:32 | 51.03852 | -0.30350 | 2997 ft | 200 kts | 276° |
| 2026-05-04 21:32 | 51.03960 | -0.32502 | 3023 ft | 191 kts | 276° |
| 2026-05-04 21:32 | 51.04064 | -0.34601 | 3005 ft | 190 kts | 276° |
| 2026-05-04 21:32 | 51.04161 | -0.36596 | 2998 ft | 177 kts | 276° |
| 2026-05-04 21:33 | 51.04246 | -0.38500 | 3004 ft | 170 kts | 276° |
| 2026-05-04 21:33 | 51.04321 | -0.40378 | 3000 ft | 170 kts | 276° |
| 2026-05-04 21:33 | 51.04410 | -0.42251 | 2994 ft | 170 kts | 277° |
| 2026-05-04 21:33 | 51.04504 | -0.44116 | 2993 ft | 170 kts | 276° |
| 2026-05-04 21:34 | 51.04596 | -0.45986 | 2991 ft | 170 kts | 276° |
| 2026-05-04 21:34 | 51.04684 | -0.47855 | 2989 ft | 170 kts | 276° |
| 2026-05-04 21:34 | 51.04778 | -0.49725 | 2997 ft | 169 kts | 279° |
| 2026-05-04 21:34 | 51.05090 | -0.51505 | 2999 ft | 167 kts | 299° |
| 2026-05-04 21:35 | 51.05810 | -0.52922 | 3000 ft | 164 kts | 323° |
| 2026-05-04 21:35 | 51.06808 | -0.53757 | 3006 ft | 162 kts | 345° |
| 2026-05-04 21:35 | 51.07920 | -0.53939 | 3007 ft | 161 kts | 6° |
| 2026-05-04 21:35 | 51.08987 | -0.53456 | 3007 ft | 160 kts | 27° |
| 2026-05-04 21:36 | 51.09599 | -0.52802 | 3007 ft | 161 kts | 40° |
| 2026-05-04 21:36 | 51.10317 | -0.51460 | 2997 ft | 162 kts | 66° |
| 2026-05-04 21:36 | 51.10603 | -0.49723 | 3015 ft | 163 kts | 76° |
| 2026-05-04 21:36 | 51.10833 | -0.47961 | 3018 ft | 163 kts | 76° |
| 2026-05-04 21:37 | 51.11074 | -0.46203 | 3016 ft | 162 kts | 75° |
| 2026-05-04 21:37 | 51.11321 | -0.44449 | 3014 ft | 163 kts | 75° |
| 2026-05-04 21:37 | 51.11562 | -0.42688 | 2913 ft | 163 kts | 76° |
| 2026-05-04 21:37 | 51.11801 | -0.40935 | 2728 ft | 162 kts | 76° |
| 2026-05-04 21:38 | 51.12041 | -0.39196 | 2523 ft | 161 kts | 76° |
| 2026-05-04 21:38 | 51.12279 | -0.37459 | 2311 ft | 160 kts | 76° |
| 2026-05-04 21:38 | 51.12517 | -0.35729 | 2103 ft | 159 kts | 76° |
| 2026-05-04 21:38 | 51.12752 | -0.34013 | 1889 ft | 159 kts | 76° |
| 2026-05-04 21:39 | 51.12987 | -0.32299 | 1678 ft | 157 kts | 76° |
| 2026-05-04 21:39 | 51.13217 | -0.30623 | 1478 ft | 151 kts | 76° |
| 2026-05-04 21:39 | 51.13434 | -0.29039 | 1295 ft | 141 kts | 76° |
| 2026-05-04 21:39 | 51.13639 | -0.27544 | 1104 ft | 137 kts | 76° |
| 2026-05-04 21:40 | 51.13842 | -0.26069 | 918 ft | 136 kts | 76° |
| 2026-05-04 21:40 | 51.14045 | -0.24591 | 733 ft | 136 kts | 76° |
| 2026-05-04 21:40 | 51.14246 | -0.23125 | 549 ft | 136 kts | 76° |
| 2026-05-04 21:40 | 51.14445 | -0.21657 | 365 ft | 135 kts | 76° |
| 2026-05-04 21:41 | 51.14642 | -0.20219 | 216 ft | 131 kts | 76° |
| 2026-05-04 21:41 | 51.14811 | -0.19003 | 210 ft | 88 kts | 77° |
| 2026-05-04 21:41 | 51.14904 | -0.18325 | 210 ft | 42 kts | 77° |
| 2026-05-04 21:41 | 51.14985 | -0.17916 | 210 ft | 30 kts | 51° |
| 2026-05-04 21:42 | 51.15060 | -0.17771 | 210 ft | 14 kts | 47° |
| 2026-05-04 21:42 | 51.15144 | -0.17763 | 210 ft | 10 kts | 347° |
| 2026-05-04 21:42 | 51.15201 | -0.17784 | 210 ft | 8 kts | 349° |
| 2026-05-04 21:42 | 51.15253 | -0.17759 | 210 ft | 8 kts | 58° |
| 2026-05-04 21:43 | 51.15265 | -0.17656 | 210 ft | 13 kts | 82° |
| 2026-05-04 21:43 | 51.15286 | -0.17481 | 210 ft | 19 kts | 77° |
| 2026-05-04 21:43 | 51.15344 | -0.17365 | 210 ft | 13 kts | 348° |
| 2026-05-04 21:43 | 51.15429 | -0.17403 | 210 ft | 11 kts | 352° |
| 2026-05-04 21:44 | 51.15495 | -0.17432 | 210 ft | 11 kts | 348° |
| 2026-05-04 21:44 | 51.15575 | -0.17438 | 210 ft | 12 kts | 36° |
| 2026-05-04 21:44 | 51.15592 | -0.17313 | 210 ft | 13 kts | 82° |
| 2026-05-04 21:44 | 51.15615 | -0.17153 | 210 ft | 17 kts | 77° |
| 2026-05-04 21:45 | 51.15643 | -0.16970 | 210 ft | 15 kts | 73° |
| 2026-05-04 21:45 | 51.15699 | -0.16859 | 210 ft | 8 kts | 358° |
| 2026-05-04 21:45 | 51.15746 | -0.16848 | 210 ft | 5 kts | 8° |
| 2026-05-04 21:45 | 51.15753 | -0.16846 | 210 ft | 0 kts | 8° |